createdAt,value
2018-03-02T00:02:06.527Z,57.70
2018-03-02T00:05:31.820Z,56.90
2018-03-02T00:08:56.056Z,56.30
2018-03-02T00:12:19.408Z,56.30
2018-03-02T00:15:43.071Z,56.90
2018-03-02T00:19:07.322Z,56.20
2018-03-02T00:22:30.933Z,56.20
2018-03-02T00:25:55.383Z,55.90
2018-03-02T00:29:20.015Z,55.70
2018-03-02T00:32:43.702Z,55.70
2018-03-02T00:36:08.835Z,56.10
2018-03-02T00:39:32.958Z,56.10
2018-03-02T00:42:57.288Z,56.50
2018-03-02T00:46:20.578Z,56.50
2018-03-02T00:49:45.156Z,55.80
2018-03-02T00:53:08.526Z,55.80
2018-03-02T00:56:32.727Z,56.50
2018-03-02T00:59:57.959Z,55.00
2018-03-02T01:03:21.518Z,55.00
2018-03-02T01:06:46.016Z,55.20
2018-03-02T01:10:10.137Z,56.10
2018-03-02T01:13:33.507Z,56.10
2018-03-02T01:16:56.875Z,56.50
2018-03-02T01:20:20.194Z,56.20
2018-03-02T01:23:44.335Z,55.80
2018-03-02T01:27:07.693Z,55.70
2018-03-02T01:30:31.008Z,56.20
2018-03-02T01:33:54.345Z,55.90
2018-03-02T01:37:17.717Z,56.40
2018-03-02T01:40:41.299Z,56.00
2018-03-02T01:44:05.338Z,55.80
2018-03-02T01:47:29.444Z,55.90
2018-03-02T01:50:52.831Z,55.80
2018-03-02T01:54:16.714Z,55.50
2018-03-02T01:57:42.566Z,56.10
2018-03-02T02:01:07.629Z,56.00
2018-03-02T02:04:32.250Z,56.50
2018-03-02T02:07:55.627Z,56.50
2018-03-02T02:11:18.996Z,57.00
2018-03-02T02:14:43.590Z,57.10
2018-03-02T02:18:06.967Z,57.00
2018-03-02T02:21:30.627Z,56.70
2018-03-02T02:24:54.303Z,56.70
2018-03-02T02:28:18.997Z,56.60
2018-03-02T02:31:42.572Z,56.80
2018-03-02T02:35:06.125Z,57.10
2018-03-02T02:38:30.388Z,57.90
2018-03-02T02:41:53.994Z,57.60
2018-03-02T02:45:18.070Z,58.50
2018-03-02T02:48:41.446Z,58.50
2018-03-02T02:52:04.813Z,58.70
2018-03-02T02:55:28.085Z,59.10
2018-03-02T02:58:52.217Z,58.80
2018-03-02T03:02:15.498Z,58.50
2018-03-02T03:05:39.626Z,58.80
2018-03-02T03:09:02.994Z,58.80
2018-03-02T03:12:26.372Z,59.00
2018-03-02T03:15:50.521Z,59.00
2018-03-02T03:19:14.636Z,58.90
2018-03-02T03:22:37.958Z,58.80
2018-03-02T03:26:01.292Z,58.50
2018-03-02T03:29:25.353Z,59.00
2018-03-02T03:32:49.314Z,58.90
2018-03-02T03:36:13.369Z,59.50
2018-03-02T03:39:36.639Z,59.50
2018-03-02T03:42:59.914Z,59.50
2018-03-02T03:46:23.223Z,59.30
2018-03-02T03:49:46.529Z,59.00
2018-03-02T03:53:10.654Z,59.90
2018-03-02T03:56:34.742Z,59.70
2018-03-02T03:59:58.850Z,59.20
2018-03-02T04:03:22.177Z,59.20
2018-03-02T04:06:45.468Z,59.00
2018-03-02T04:10:09.597Z,58.50
2018-03-02T04:13:32.887Z,58.50
2018-03-02T04:16:56.985Z,59.10
2018-03-02T04:20:20.259Z,59.20
2018-03-02T04:23:43.562Z,59.40
2018-03-02T04:27:07.606Z,59.50
2018-03-02T04:30:30.890Z,59.50
2018-03-02T04:33:54.223Z,59.70
2018-03-02T04:37:18.269Z,59.70
2018-03-02T04:40:42.404Z,59.70
2018-03-02T04:44:06.532Z,59.80
2018-03-02T04:47:29.808Z,59.70
2018-03-02T04:50:53.862Z,59.80
2018-03-02T04:54:17.176Z,59.80
2018-03-02T04:57:40.483Z,60.00
2018-03-02T05:01:04.553Z,59.50
2018-03-02T05:04:27.890Z,59.50
2018-03-02T05:07:51.976Z,59.70
2018-03-02T05:11:16.100Z,60.70
2018-03-02T05:14:39.460Z,60.70
2018-03-02T05:18:02.839Z,59.80
2018-03-02T05:21:26.162Z,60.10
2018-03-02T05:24:49.513Z,60.30
2018-03-02T05:28:12.864Z,60.40
2018-03-02T05:31:36.923Z,60.60
2018-03-02T05:35:00.233Z,60.50
2018-03-02T05:38:24.355Z,61.30
2018-03-02T05:41:48.480Z,61.20
2018-03-02T05:45:11.802Z,61.00
2018-03-02T05:48:35.858Z,60.70
2018-03-02T05:51:59.973Z,60.50
2018-03-02T05:55:24.205Z,60.70
2018-03-02T05:58:48.404Z,60.80
2018-03-02T06:02:11.718Z,60.70
2018-03-02T06:05:35.024Z,61.20
2018-03-02T06:08:58.398Z,61.20
2018-03-02T06:12:21.711Z,60.60
2018-03-02T06:15:45.048Z,61.30
2018-03-02T06:19:08.410Z,61.00
2018-03-02T06:22:31.716Z,61.20
2018-03-02T06:25:55.059Z,61.10
2018-03-02T06:29:18.388Z,60.90
2018-03-02T06:32:42.573Z,60.90
2018-03-02T06:36:06.648Z,60.20
2018-03-02T06:39:31.154Z,60.80
2018-03-02T06:42:54.464Z,60.80
2018-03-02T06:46:17.786Z,61.40
2018-03-02T06:49:41.154Z,61.00
2018-03-02T06:53:04.629Z,61.60
2018-03-02T06:56:27.966Z,62.00
2018-03-02T06:59:52.897Z,60.70
2018-03-02T07:03:17.006Z,60.30
2018-03-02T07:06:40.464Z,60.20
2018-03-02T07:10:04.674Z,59.90
2018-03-02T07:13:28.808Z,60.00
2018-03-02T07:16:52.932Z,59.80
2018-03-02T07:20:17.057Z,59.80
2018-03-02T07:23:40.397Z,59.70
2018-03-02T07:27:04.474Z,59.10
2018-03-02T07:30:27.804Z,59.10
2018-03-02T07:33:51.885Z,58.80
2018-03-02T07:37:15.200Z,58.80
2018-03-02T07:40:38.520Z,59.30
2018-03-02T07:44:01.830Z,59.30
2018-03-02T07:47:25.146Z,60.00
2018-03-02T07:50:49.227Z,60.00
2018-03-02T07:54:12.541Z,59.30
2018-03-02T07:57:35.967Z,59.30
2018-03-02T08:00:59.355Z,59.30
2018-03-02T08:04:22.693Z,58.50
2018-03-02T08:07:46.046Z,59.10
2018-03-02T08:11:09.430Z,59.60
2018-03-02T08:14:33.532Z,58.70
2018-03-02T08:17:56.834Z,58.70
2018-03-02T08:21:20.154Z,59.70
2018-03-02T08:24:44.324Z,58.50
2018-03-02T08:28:07.639Z,58.50
2018-03-02T08:31:31.024Z,58.40
2018-03-02T08:34:54.311Z,58.60
2018-03-02T08:38:18.395Z,58.80
2018-03-02T08:41:42.580Z,57.40
2018-03-02T08:45:06.641Z,58.40
2018-03-02T08:48:30.803Z,58.40
2018-03-02T08:51:55.950Z,58.70
2018-03-02T08:55:19.376Z,58.60
2018-03-02T08:58:42.773Z,58.50
2018-03-02T09:02:06.121Z,58.10
2018-03-02T09:05:30.341Z,57.70
2018-03-02T09:08:56.749Z,57.50
2018-03-02T09:12:20.154Z,57.40
2018-03-02T09:15:43.476Z,58.10
2018-03-02T09:19:07.104Z,57.60
2018-03-02T09:22:30.595Z,57.70
2018-03-02T09:25:54.674Z,57.30
2018-03-02T09:29:19.424Z,55.80
2018-03-02T09:32:42.853Z,56.30
2018-03-02T09:36:06.582Z,56.10
2018-03-02T09:39:32.090Z,55.90
2018-03-02T09:42:56.563Z,55.40
2018-03-02T09:46:20.643Z,55.30
2018-03-02T09:49:44.718Z,56.00
2018-03-02T09:53:08.808Z,55.60
2018-03-02T09:56:33.040Z,55.40
2018-03-02T09:59:58.333Z,55.40
2018-03-02T10:03:22.491Z,56.00
2018-03-02T10:06:45.804Z,56.00
2018-03-02T10:10:09.346Z,56.00
2018-03-02T10:13:33.434Z,55.00
2018-03-02T10:16:58.151Z,54.70
2018-03-02T10:20:23.426Z,55.80
2018-03-02T10:23:46.790Z,55.10
2018-03-02T10:27:10.062Z,54.70
2018-03-02T10:30:33.327Z,54.70
2018-03-02T10:33:56.596Z,54.50
2018-03-02T10:37:19.950Z,55.40
2018-03-02T10:40:44.003Z,54.70
2018-03-02T10:44:08.265Z,55.20
2018-03-02T10:47:31.579Z,54.60
2018-03-02T10:50:54.898Z,55.00
2018-03-02T10:54:18.292Z,55.10
2018-03-02T10:57:43.007Z,55.10
2018-03-02T11:01:12.345Z,55.00
2018-03-02T11:04:36.386Z,55.20
2018-03-02T11:08:00.473Z,55.70
2018-03-02T11:11:24.445Z,55.70
2018-03-02T11:14:47.742Z,56.90
2018-03-02T11:18:11.962Z,57.60
2018-03-02T11:21:36.091Z,55.80
2018-03-02T11:24:59.462Z,55.70
2018-03-02T11:28:22.806Z,55.90
2018-03-02T11:31:46.097Z,55.80
2018-03-02T11:35:10.236Z,57.20
2018-03-02T11:38:33.552Z,57.00
2018-03-02T11:41:56.838Z,57.60
2018-03-02T11:45:20.201Z,55.60
2018-03-02T11:48:44.319Z,55.70
2018-03-02T11:52:07.787Z,55.70
2018-03-02T11:55:31.066Z,54.90
2018-03-02T11:58:54.347Z,56.90
2018-03-02T12:02:19.521Z,56.70
2018-03-02T12:05:43.579Z,56.70
2018-03-02T12:09:07.017Z,56.70
2018-03-02T12:12:31.865Z,56.90
2018-03-02T12:15:55.184Z,56.90
2018-03-02T12:19:19.272Z,58.00
2018-03-02T12:22:44.375Z,57.60
2018-03-02T12:26:07.651Z,57.60
2018-03-02T12:29:31.035Z,57.80
2018-03-02T12:32:55.123Z,59.90
2018-03-02T12:36:19.925Z,59.30
2018-03-02T12:39:44.024Z,59.00
2018-03-02T12:43:07.986Z,59.00
2018-03-02T12:46:31.305Z,59.60
2018-03-02T12:49:54.606Z,58.60
2018-03-02T12:53:18.044Z,58.90
2018-03-02T12:56:41.489Z,60.90
2018-03-02T13:00:04.910Z,60.10
2018-03-02T13:03:29.154Z,62.20
2018-03-02T13:06:53.324Z,62.80
2018-03-02T13:10:17.500Z,66.10
2018-03-02T13:13:40.907Z,66.10
2018-03-02T13:17:04.249Z,67.30
2018-03-02T13:20:28.353Z,70.00
2018-03-02T13:23:53.565Z,69.80
2018-03-02T13:27:35.862Z,71.70
2018-03-02T13:30:59.270Z,72.30
2018-03-02T13:34:40.757Z,73.30
2018-03-02T13:38:05.151Z,73.20
2018-03-02T13:41:46.247Z,73.10
2018-03-02T13:45:09.630Z,74.60
2018-03-02T13:48:50.958Z,75.10
2018-03-02T13:52:14.278Z,75.60
2018-03-02T13:55:37.589Z,75.70
2018-03-02T13:59:00.934Z,72.80
2018-03-02T14:02:42.943Z,73.70
2018-03-02T14:06:07.087Z,77.10
2018-03-02T14:09:30.444Z,76.30
2018-03-02T14:12:53.776Z,76.40
2018-03-02T14:16:17.914Z,73.60
2018-03-02T14:19:42.018Z,72.60
2018-03-02T14:23:05.447Z,72.60
2018-03-02T14:26:29.144Z,73.10
2018-03-02T14:29:53.226Z,73.70
2018-03-02T14:33:16.519Z,73.40
2018-03-02T14:36:46.414Z,73.50
2018-03-02T14:40:09.802Z,73.40
2018-03-02T14:43:34.191Z,74.10
2018-03-02T14:46:58.274Z,73.30
2018-03-02T14:50:22.409Z,74.00
2018-03-02T14:53:45.707Z,73.30
2018-03-02T14:57:09.157Z,75.30
2018-03-02T15:00:32.873Z,74.10
2018-03-02T15:03:56.206Z,73.40
2018-03-02T15:07:20.457Z,73.90
2018-03-02T15:10:43.978Z,73.80
2018-03-02T15:14:08.146Z,73.60
2018-03-02T15:17:31.574Z,73.50
2018-03-02T15:20:55.002Z,74.20
2018-03-02T15:24:19.580Z,74.90
2018-03-02T15:27:44.716Z,74.40
2018-03-02T15:31:08.996Z,73.70
2018-03-02T15:34:32.502Z,73.60
2018-03-02T15:37:56.475Z,74.40
2018-03-02T15:41:20.749Z,75.00
2018-03-02T15:44:45.445Z,74.70
2018-03-02T15:48:12.438Z,76.10
2018-03-02T15:51:38.507Z,74.80
2018-03-02T15:55:02.155Z,74.70
2018-03-02T15:58:25.662Z,75.30
2018-03-02T16:01:49.270Z,76.20
2018-03-02T16:05:13.619Z,75.60
2018-03-02T16:08:37.198Z,75.50
2018-03-02T16:12:02.524Z,75.40
2018-03-02T16:15:26.470Z,75.30
2018-03-02T16:18:49.860Z,75.30
2018-03-02T16:22:16.283Z,76.70
2018-03-02T16:25:39.834Z,76.60
2018-03-02T16:29:04.813Z,76.00
2018-03-02T16:32:28.189Z,76.20
2018-03-02T16:35:51.521Z,76.70
2018-03-02T16:39:15.598Z,77.10
2018-03-02T16:42:40.455Z,77.00
2018-03-02T16:46:03.933Z,77.20
2018-03-02T16:49:27.208Z,78.40
2018-03-02T16:52:51.453Z,77.70
2018-03-02T16:56:15.499Z,78.10
2018-03-02T16:59:38.772Z,77.90
2018-03-02T17:03:04.956Z,78.40
2018-03-02T17:06:29.331Z,78.40
2018-03-02T17:09:53.469Z,77.90
2018-03-02T17:13:17.531Z,77.70
2018-03-02T17:16:40.843Z,77.60
2018-03-02T17:20:04.343Z,77.70
2018-03-02T17:23:28.415Z,77.90
2018-03-02T17:26:51.744Z,77.90
2018-03-02T17:30:15.393Z,77.90
2018-03-02T17:33:38.791Z,78.20
2018-03-02T17:37:02.279Z,78.60
2018-03-02T17:40:26.459Z,78.20
2018-03-02T17:43:50.627Z,78.10
2018-03-02T17:47:14.017Z,77.90
2018-03-02T17:50:38.107Z,78.60
2018-03-02T17:54:02.241Z,78.80
2018-03-02T17:57:26.349Z,78.70
2018-03-02T18:00:49.704Z,78.70
2018-03-02T18:04:13.762Z,78.90
2018-03-02T18:07:37.088Z,78.70
2018-03-02T18:11:00.399Z,78.70
2018-03-02T18:14:23.724Z,78.30
2018-03-02T18:17:47.135Z,77.50
2018-03-02T18:21:10.607Z,77.70
2018-03-02T18:24:34.811Z,78.40
2018-03-02T18:27:58.148Z,78.00
2018-03-02T18:31:22.211Z,78.40
2018-03-02T18:34:45.753Z,77.30
2018-03-02T18:38:09.246Z,77.30
2018-03-02T18:41:32.552Z,77.50
2018-03-02T18:44:56.557Z,77.20
2018-03-02T18:48:28.345Z,77.00
2018-03-02T18:51:51.657Z,76.70
2018-03-02T18:55:15.122Z,77.10
2018-03-02T18:58:40.629Z,76.60
2018-03-02T19:02:04.849Z,76.80
2018-03-02T19:05:28.324Z,76.80
2018-03-02T19:08:52.308Z,76.80
2018-03-02T19:12:16.351Z,77.70
2018-03-02T19:15:40.730Z,77.90
2018-03-02T19:19:04.108Z,77.70
2018-03-02T19:22:29.927Z,77.70
2018-03-02T19:25:54.514Z,77.50
2018-03-02T19:29:18.154Z,77.20
2018-03-02T19:32:41.739Z,77.70
2018-03-02T19:36:06.977Z,77.70
2018-03-02T19:39:30.482Z,77.60
2018-03-02T19:42:54.884Z,77.40
2018-03-02T19:46:20.627Z,77.40
2018-03-02T19:49:44.087Z,77.30
2018-03-02T19:53:07.433Z,78.20
2018-03-02T19:56:31.521Z,78.30
2018-03-02T19:59:55.683Z,78.80
2018-03-02T20:03:19.868Z,79.00
2018-03-02T20:06:44.045Z,79.30
2018-03-02T20:10:07.790Z,79.20
2018-03-02T20:13:31.931Z,79.00
2018-03-02T20:16:55.238Z,78.80
2018-03-02T20:20:20.596Z,78.90
2018-03-02T20:23:44.821Z,80.30
2018-03-02T20:27:08.971Z,79.70
2018-03-02T20:30:32.561Z,79.60
2018-03-02T20:33:55.958Z,79.80
2018-03-02T20:37:19.354Z,81.60
2018-03-02T20:40:43.401Z,81.50
2018-03-02T20:44:07.676Z,81.40
2018-03-02T20:47:31.863Z,79.40
2018-03-02T20:50:55.995Z,77.20
2018-03-02T20:54:19.397Z,77.10
2018-03-02T20:57:42.806Z,76.90
2018-03-02T21:01:06.093Z,76.00
2018-03-02T21:04:29.531Z,77.20
2018-03-02T21:07:53.588Z,77.50
2018-03-02T21:11:16.875Z,77.40
2018-03-02T21:14:40.203Z,77.00
2018-03-02T21:18:03.504Z,76.50
2018-03-02T21:21:26.869Z,76.70
2018-03-02T21:24:50.216Z,77.00
2018-03-02T21:28:14.403Z,77.70
2018-03-02T21:31:38.539Z,77.50
2018-03-02T21:35:01.919Z,77.40
2018-03-02T21:38:26.066Z,81.10
2018-03-02T21:41:50.156Z,80.10
2018-03-02T21:45:13.491Z,80.00
2018-03-02T21:48:38.244Z,75.80
2018-03-02T21:52:01.553Z,75.60
2018-03-02T21:55:24.823Z,75.50
2018-03-02T21:58:48.123Z,74.90
2018-03-02T22:02:12.205Z,75.80
2018-03-02T22:05:36.273Z,75.10
2018-03-02T22:08:59.685Z,75.00
2018-03-02T22:12:23.021Z,75.60
2018-03-02T22:15:46.395Z,76.10
2018-03-02T22:19:09.701Z,76.40
2018-03-02T22:22:33.021Z,77.40
2018-03-02T22:25:56.321Z,77.30
2018-03-02T22:29:19.636Z,75.90
2018-03-02T22:32:44.050Z,76.50
2018-03-02T22:36:07.424Z,76.40
2018-03-02T22:39:30.774Z,76.20
2018-03-02T22:42:54.095Z,75.50
2018-03-02T22:46:18.247Z,76.10
2018-03-02T22:49:41.552Z,75.90
2018-03-02T22:53:05.627Z,75.40
2018-03-02T22:56:29.734Z,75.80
2018-03-02T22:59:53.025Z,75.70
2018-03-02T23:03:16.399Z,75.90
2018-03-02T23:06:39.764Z,75.60
2018-03-02T23:10:03.893Z,74.50
2018-03-02T23:13:27.313Z,74.40
2018-03-02T23:16:51.054Z,75.70
2018-03-02T23:20:14.422Z,75.70
2018-03-02T23:23:37.726Z,79.50
2018-03-02T23:27:01.021Z,79.70
2018-03-02T23:30:25.992Z,79.80
2018-03-02T23:33:49.343Z,79.60
2018-03-02T23:37:12.897Z,77.30
2018-03-02T23:40:36.283Z,76.40
2018-03-02T23:43:59.589Z,77.50
2018-03-02T23:47:22.924Z,74.90
2018-03-02T23:50:46.251Z,76.70
2018-03-02T23:54:09.661Z,75.80
2018-03-02T23:57:32.978Z,74.90
